Amoret, Missouri
Current Conditions -  °F | °C
As of 5:13 AM on Saturday 25 Oct 2014 (Local Time) from KOJC Reporting Station
Moderate Fog Moderate Fog  
Wind Chill: 55°   Ceiling: Unl
Heat Index: 55°   Visibility: 0.25mi
Dew Point: 55°   Wind: 3mph
Humidity: 100%   Direction: 250°WSW
Pressure: 30.02"   Gusts: NA
Location:  38.26°N, 94.59°W
Report Text: KOJC 251013Z AUTO 25003KT 1/4SM FG CLR 13/13 A3002 RMK AO2 T01280128
Loading
Personal Weather Stations






























Interactive Weather Map
Tropical Storm Tracking
New forecast layout! Learn more

10-Day Weather Forecast

Advertisements
Track Severe Weather on mobile